Terminal Aerodrome Forecast
Issued by NWS

Home | Current Version | Previous Version | Text Only | Print | Product List | Glossary On
Versions: 1 2 3 4 5 6 7 8 9 10 11 12 13 14 15 16 17 18 19 20 21 22 23 24
000
FTUS46 KOTX 240520
TAFMWH
TAF
KMWH 240520Z 2406/2506 21012KT P6SM BKN090
     FM241200 20006KT P6SM VCSH SCT040 BKN070
     FM241700 23016G22KT P6SM SCT050 BKN100
     FM250400 27011KT P6SM SCT100=

USA.gov is the U.S. government's official web portal to all federal, state and local government web resources and services.